createdAt,value
2023-04-17T00:04:52.900Z,99770.84
2023-04-17T00:09:55.153Z,99723.91
2023-04-17T00:14:57.328Z,99759.06
2023-04-17T00:19:59.639Z,99854.19
2023-04-17T00:25:02.096Z,99727.63
2023-04-17T00:30:04.777Z,99743.03
2023-04-17T00:35:07.617Z,99680.63
2023-04-17T00:40:10.354Z,99835.50
2023-04-17T00:45:12.660Z,99714.50
2023-04-17T00:50:15.342Z,99763.41
2023-04-17T00:55:18.384Z,99809.53
2023-04-17T01:00:20.694Z,99664.81
2023-04-17T01:05:23.126Z,99759.44
2023-04-17T01:10:25.307Z,99696.22
2023-04-17T01:15:27.534Z,99699.97
2023-04-17T01:20:32.659Z,99814.63
2023-04-17T01:25:34.940Z,99781.25
2023-04-17T01:30:37.031Z,99767.19
2023-04-17T01:35:39.157Z,99751.78
2023-04-17T01:40:41.303Z,99770.38
2023-04-17T01:45:43.460Z,99799.63
2023-04-17T01:50:45.830Z,99779.41
2023-04-17T01:55:47.942Z,99749.75
2023-04-17T02:00:50.399Z,99788.91
2023-04-17T02:05:55.942Z,99767.84
2023-04-17T02:10:58.082Z,99763.09
2023-04-17T02:16:00.316Z,99739.53
2023-04-17T02:21:02.520Z,99742.34
2023-04-17T02:26:04.950Z,99743.25
2023-04-17T02:31:08.941Z,99707.56
2023-04-17T02:36:11.389Z,99768.00
2023-04-17T02:41:13.559Z,99719.22
2023-04-17T02:46:16.242Z,99762.19
2023-04-17T02:51:21.223Z,99772.41
2023-04-17T02:56:23.420Z,99759.13
2023-04-17T03:01:26.656Z,99788.94
2023-04-17T03:06:28.938Z,99728.56
2023-04-17T03:11:31.287Z,99800.69
2023-04-17T03:16:33.436Z,99790.84
2023-04-17T03:21:35.807Z,99770.13
2023-04-17T03:26:37.985Z,99746.00
2023-04-17T03:31:40.946Z,99771.22
2023-04-17T03:36:43.094Z,99761.72
2023-04-17T03:41:45.960Z,99779.06
2023-04-17T03:46:48.151Z,99809.25
2023-04-17T03:51:50.319Z,99783.66
2023-04-17T03:56:52.589Z,99775.25
2023-04-17T04:01:54.685Z,99797.50
2023-04-17T04:06:58.273Z,99785.38
2023-04-17T04:12:00.445Z,99766.94
2023-04-17T04:17:02.924Z,99779.69
2023-04-17T04:22:06.717Z,99777.59
2023-04-17T04:27:09.698Z,99809.94
2023-04-17T04:32:13.918Z,99770.72
2023-04-17T04:37:16.882Z,99784.03
2023-04-17T04:42:22.381Z,99776.09
2023-04-17T04:47:24.936Z,99814.59
2023-04-17T04:52:28.812Z,99805.59
2023-04-17T04:57:30.967Z,99804.31
2023-04-17T05:02:33.250Z,99801.78
2023-04-17T05:07:35.544Z,99800.78
2023-04-17T05:12:37.903Z,99801.06
2023-04-17T05:17:40.201Z,99781.84
2023-04-17T05:22:42.422Z,99810.50
2023-04-17T05:27:44.665Z,99791.94
2023-04-17T05:32:46.980Z,99815.25
2023-04-17T05:37:49.240Z,99847.00
2023-04-17T05:42:51.529Z,99762.16
2023-04-17T05:47:53.922Z,99822.56
2023-04-17T05:53:00.588Z,99696.84
2023-04-17T05:58:10.550Z,99757.59
2023-04-17T06:03:19.849Z,99771.25
2023-04-17T06:08:22.321Z,99824.25
2023-04-17T06:13:24.978Z,99817.16
2023-04-17T06:18:27.217Z,99815.63
2023-04-17T06:23:29.378Z,99850.19
2023-04-17T06:28:32.598Z,99829.16
2023-04-17T06:33:34.745Z,99863.09
2023-04-17T06:38:36.871Z,99836.63
2023-04-17T06:43:39.039Z,99882.47
2023-04-17T06:48:41.147Z,99872.47
2023-04-17T06:53:43.728Z,99866.78
2023-04-17T06:58:46.091Z,99893.25
2023-04-17T07:03:48.481Z,99890.09
2023-04-17T07:08:52.120Z,99912.75
2023-04-17T07:13:55.352Z,99864.81
2023-04-17T07:18:57.569Z,99921.22
2023-04-17T07:23:59.775Z,99900.06
2023-04-17T07:29:02.194Z,99929.69
2023-04-17T07:34:05.582Z,99920.03
2023-04-17T07:39:08.446Z,99914.75
2023-04-17T07:44:10.590Z,99917.16
2023-04-17T07:49:13.856Z,99912.03
2023-04-17T07:54:16.436Z,99907.59
2023-04-17T07:59:18.574Z,99916.16
2023-04-17T08:04:21.693Z,99910.53
2023-04-17T08:09:24.003Z,99905.03
2023-04-17T08:14:26.187Z,99894.38
2023-04-17T08:19:28.902Z,99939.22
2023-04-17T08:24:32.188Z,99912.97
2023-04-17T08:29:34.604Z,99949.09
2023-04-17T08:34:38.238Z,99940.25
2023-04-17T08:39:40.823Z,99935.97
2023-04-17T08:44:43.601Z,100004.25
2023-04-17T08:49:46.458Z,99951.66
2023-04-17T08:54:51.136Z,99893.81
2023-04-17T08:59:53.728Z,99945.06
2023-04-17T09:04:56.461Z,99800.03
2023-04-17T09:09:58.977Z,99804.78
2023-04-17T09:15:16.953Z,99805.56
2023-04-17T09:20:19.203Z,99845.16
2023-04-17T09:25:23.543Z,99877.34
2023-04-17T09:30:27.341Z,99901.13
2023-04-17T09:35:29.579Z,99911.78
2023-04-17T09:40:42.542Z,99956.25
2023-04-17T09:45:45.587Z,99949.34
2023-04-17T09:50:49.249Z,99953.72
2023-04-17T09:55:53.638Z,99942.50
2023-04-17T10:00:56.119Z,99926.69
2023-04-17T10:05:58.415Z,99923.97
2023-04-17T10:11:08.510Z,99933.44
2023-04-17T10:16:11.229Z,99921.19
2023-04-17T10:21:24.632Z,99924.50
2023-04-17T10:26:27.514Z,99912.78
2023-04-17T10:32:07.573Z,99923.47
2023-04-17T10:37:15.637Z,99893.19
2023-04-17T10:42:22.261Z,99919.91
2023-04-17T10:47:32.348Z,99928.22
2023-04-17T10:52:40.842Z,99910.56
2023-04-17T10:58:03.852Z,99896.53
2023-04-17T11:03:07.509Z,99897.78
2023-04-17T11:08:11.501Z,99887.63
2023-04-17T11:13:15.255Z,99901.25
2023-04-17T11:18:17.495Z,99880.16
2023-04-17T11:23:20.305Z,99879.41
2023-04-17T11:28:22.457Z,99856.59
2023-04-17T11:33:24.788Z,99879.63
2023-04-17T11:38:27.744Z,99852.72
2023-04-17T11:43:31.222Z,99834.31
2023-04-17T11:48:33.396Z,99846.09
2023-04-17T11:53:36.586Z,99814.97
2023-04-17T11:58:48.236Z,99849.38
2023-04-17T12:03:50.911Z,99836.00
2023-04-17T12:08:55.311Z,99843.94
2023-04-17T12:13:58.203Z,99824.03
2023-04-17T12:19:00.440Z,99838.50
2023-04-17T12:24:03.200Z,99830.84
2023-04-17T12:29:05.357Z,99830.03
2023-04-17T12:34:07.594Z,99839.84
2023-04-17T12:39:09.804Z,99815.28
2023-04-17T12:44:12.237Z,99816.09
2023-04-17T12:49:14.873Z,99818.78
2023-04-17T12:54:17.134Z,99817.31
2023-04-17T12:59:19.251Z,99807.06
2023-04-17T13:04:21.640Z,99842.47
2023-04-17T13:09:23.889Z,99829.81
2023-04-17T13:14:26.245Z,99808.16
2023-04-17T13:19:29.193Z,99790.50
2023-04-17T13:24:31.853Z,99792.44
2023-04-17T13:29:33.987Z,99810.38
2023-04-17T13:40:05.529Z,99838.94
2023-04-17T13:45:08.390Z,99847.25
2023-04-17T13:50:11.115Z,99822.31
2023-04-17T13:55:15.025Z,99829.41
2023-04-17T14:00:19.127Z,99845.28
2023-04-17T14:05:21.433Z,99867.88
2023-04-17T14:10:24.169Z,99867.69
2023-04-17T14:15:26.493Z,99876.72
2023-04-17T14:20:29.192Z,99848.47
2023-04-17T14:25:31.342Z,99866.25
2023-04-17T14:30:33.799Z,99887.34
2023-04-17T14:35:36.057Z,99884.69
2023-04-17T14:40:39.060Z,99884.94
2023-04-17T14:45:41.652Z,99874.97
2023-04-17T14:50:43.833Z,99847.53
2023-04-17T14:55:46.151Z,99876.25
2023-04-17T15:00:48.545Z,99836.03
2023-04-17T15:05:52.641Z,99851.47
2023-04-17T15:10:54.843Z,99880.84
2023-04-17T15:15:56.957Z,99856.56
2023-04-17T15:20:59.179Z,99877.91
2023-04-17T15:26:01.896Z,99863.84
2023-04-17T15:31:04.198Z,99853.06
2023-04-17T15:36:07.025Z,99865.94
2023-04-17T15:41:10.600Z,99853.84
2023-04-17T15:46:13.362Z,99834.19
2023-04-17T15:51:15.599Z,99855.09
2023-04-17T15:56:17.825Z,99863.34
2023-04-17T16:01:20.103Z,99875.06
2023-04-17T16:06:22.368Z,99883.31
2023-04-17T16:11:24.649Z,99879.19
2023-04-17T16:16:29.596Z,99888.81
2023-04-17T16:21:32.301Z,99896.19
2023-04-17T16:26:34.947Z,99877.78
2023-04-17T16:31:37.130Z,99914.31
2023-04-17T16:36:39.238Z,99901.97
2023-04-17T16:41:41.486Z,99869.97
2023-04-17T16:47:02.871Z,99890.13
2023-04-17T16:52:06.164Z,99894.44
2023-04-17T16:57:09.392Z,99901.78
2023-04-17T17:02:11.771Z,99899.50
2023-04-17T17:07:14.050Z,99902.56
2023-04-17T17:12:16.275Z,99907.56
2023-04-17T17:17:18.422Z,99935.91
2023-04-17T17:22:20.593Z,99886.09
2023-04-17T17:27:22.792Z,99935.13
2023-04-17T17:32:24.942Z,99929.56
2023-04-17T17:37:27.893Z,99913.81
2023-04-17T17:42:30.353Z,99941.81
2023-04-17T17:47:32.771Z,99962.59
2023-04-17T17:52:34.928Z,99936.69
2023-04-17T18:03:03.172Z,99942.47
2023-04-17T18:08:05.474Z,99943.13
2023-04-17T18:13:07.755Z,99933.38
2023-04-17T18:18:10.765Z,99958.16
2023-04-17T18:23:12.947Z,99959.81
2023-04-17T18:28:15.052Z,99964.28
2023-04-17T18:33:17.136Z,99923.53
2023-04-17T18:38:19.392Z,99937.47
2023-04-17T18:43:21.538Z,99984.94
2023-04-17T18:48:24.742Z,99994.44
2023-04-17T18:53:27.011Z,99963.06
2023-04-17T18:58:29.135Z,99969.25
2023-04-17T19:03:31.525Z,99964.88
2023-04-17T19:08:33.973Z,99990.53
2023-04-17T19:13:36.253Z,99954.41
2023-04-17T19:18:38.691Z,99997.78
2023-04-17T19:23:41.749Z,99975.69
2023-04-17T19:28:43.992Z,99980.38
2023-04-17T19:33:46.168Z,99978.97
2023-04-17T19:38:48.407Z,99979.81
2023-04-17T19:43:52.028Z,99994.53
2023-04-17T19:48:54.294Z,99947.09
2023-04-17T19:53:56.630Z,99998.88
2023-04-17T19:59:02.406Z,100005.94
2023-04-17T20:04:04.707Z,99981.34
2023-04-17T20:09:07.098Z,99955.94
2023-04-17T20:14:09.326Z,99971.47
2023-04-17T20:19:11.653Z,99964.88
2023-04-17T20:24:16.045Z,99991.72
2023-04-17T20:29:18.243Z,99983.97
2023-04-17T20:34:21.587Z,100000.53
2023-04-17T20:39:23.812Z,99974.31
2023-04-17T20:44:26.140Z,99976.28
2023-04-17T20:49:28.215Z,99971.41
2023-04-17T20:54:30.489Z,99969.09
2023-04-17T20:59:33.724Z,99982.69
2023-04-17T21:04:35.947Z,100000.91
2023-04-17T21:09:38.344Z,99965.56
2023-04-17T21:14:41.986Z,99957.56
2023-04-17T21:19:46.360Z,99979.78
2023-04-17T21:24:49.736Z,99975.72
2023-04-17T21:29:52.573Z,99934.31
2023-04-17T21:34:54.708Z,99957.84
2023-04-17T21:39:56.906Z,99993.66
2023-04-17T21:44:59.093Z,99980.59
2023-04-17T21:50:01.231Z,99958.47
2023-04-17T21:55:05.629Z,100001.09
2023-04-17T22:00:11.942Z,100001.31
2023-04-17T22:05:15.604Z,100013.66
2023-04-17T22:10:17.787Z,99984.28
2023-04-17T22:15:19.987Z,100007.38
2023-04-17T22:20:22.282Z,99995.22
2023-04-17T22:25:24.498Z,100007.59
2023-04-17T22:30:26.620Z,99938.31
2023-04-17T22:35:29.030Z,99965.50
2023-04-17T22:40:31.269Z,99977.84
2023-04-17T22:45:33.423Z,99995.16
2023-04-17T22:50:35.552Z,99958.19
2023-04-17T22:55:39.478Z,99944.78
2023-04-17T23:00:41.570Z,99951.75
2023-04-17T23:05:43.731Z,99979.09
2023-04-17T23:10:45.995Z,99985.47
2023-04-17T23:15:48.360Z,99945.06
2023-04-17T23:20:50.679Z,99952.19
2023-04-17T23:25:52.769Z,99972.59
2023-04-17T23:30:55.066Z,99962.41
2023-04-17T23:35:57.176Z,99951.88
2023-04-17T23:40:59.412Z,99962.97
2023-04-17T23:46:01.835Z,99927.94
2023-04-17T23:56:32.602Z,99946.88
